createdAt,value
2023-04-02T00:00:45.602Z,7.10
2023-04-02T00:01:45.660Z,7.14
2023-04-02T00:02:45.651Z,7.14
2023-04-02T00:03:45.739Z,7.14
2023-04-02T00:04:45.682Z,7.17
2023-04-02T00:05:45.698Z,7.17
2023-04-02T00:06:45.749Z,7.15
2023-04-02T00:07:45.739Z,7.15
2023-04-02T00:08:45.748Z,7.18
2023-04-02T00:09:45.781Z,7.20
2023-04-02T00:10:45.786Z,7.18
2023-04-02T00:11:45.859Z,7.20
2023-04-02T00:12:45.825Z,7.21
2023-04-02T00:13:45.848Z,7.21
2023-04-02T00:14:45.865Z,7.20
2023-04-02T00:15:45.894Z,7.20
2023-04-02T00:16:46.037Z,7.21
2023-04-02T00:17:45.970Z,7.25
2023-04-02T00:18:45.925Z,7.24
2023-04-02T00:19:45.949Z,7.24
2023-04-02T00:20:45.962Z,7.23
2023-04-02T00:21:45.997Z,7.21
2023-04-02T00:22:46.007Z,7.20
2023-04-02T00:23:46.000Z,7.21
2023-04-02T00:24:46.014Z,7.21
2023-04-02T00:25:46.039Z,7.21
2023-04-02T00:26:46.064Z,7.20
2023-04-02T00:27:46.069Z,7.18
2023-04-02T00:28:46.080Z,7.18
2023-04-02T00:29:46.105Z,7.17
2023-04-02T00:30:46.126Z,7.18
2023-04-02T00:31:46.255Z,7.18
2023-04-02T00:32:46.246Z,7.20
2023-04-02T00:33:46.197Z,7.21
2023-04-02T00:34:46.196Z,7.21
2023-04-02T00:35:46.235Z,7.20
2023-04-02T00:36:46.256Z,7.20
2023-04-02T00:37:46.259Z,7.20
2023-04-02T00:38:47.505Z,7.21
2023-04-02T00:39:46.285Z,7.21
2023-04-02T00:40:46.303Z,7.20
2023-04-02T00:41:46.339Z,7.23
2023-04-02T00:42:46.341Z,7.21
2023-04-02T00:43:46.357Z,7.20
2023-04-02T00:44:46.367Z,7.20
2023-04-02T00:45:46.410Z,7.21
2023-04-02T00:46:46.422Z,7.20
2023-04-02T00:47:46.459Z,7.17
2023-04-02T00:48:46.431Z,7.17
2023-04-02T00:49:46.454Z,7.15
2023-04-02T00:50:46.472Z,7.15
2023-04-02T00:51:46.505Z,7.17
2023-04-02T00:52:46.531Z,7.18
2023-04-02T00:53:46.521Z,7.14
2023-04-02T00:54:46.544Z,7.11
2023-04-02T00:55:46.557Z,7.11
2023-04-02T00:56:46.654Z,7.10
2023-04-02T00:57:46.593Z,7.11
2023-04-02T00:58:46.607Z,7.13
2023-04-02T00:59:46.619Z,7.11
2023-04-02T01:00:46.640Z,7.10
2023-04-02T01:01:46.759Z,7.11
2023-04-02T01:02:46.737Z,7.11
2023-04-02T01:03:46.833Z,7.10
2023-04-02T01:04:46.708Z,7.10
2023-04-02T01:05:46.722Z,7.10
2023-04-02T01:06:46.774Z,7.07
2023-04-02T01:07:46.754Z,7.07
2023-04-02T01:08:46.778Z,7.10
2023-04-02T01:09:46.811Z,7.07
2023-04-02T01:10:46.822Z,7.06
2023-04-02T01:11:46.840Z,7.06
2023-04-02T01:12:46.846Z,7.05
2023-04-02T01:13:46.870Z,7.05
2023-04-02T01:14:46.900Z,7.02
2023-04-02T01:15:46.960Z,7.03
2023-04-02T01:16:46.933Z,7.05
2023-04-02T01:17:46.970Z,7.05
2023-04-02T01:18:46.954Z,7.03
2023-04-02T01:19:46.992Z,7.02
2023-04-02T01:20:46.997Z,7.03
2023-04-02T01:21:47.048Z,7.02
2023-04-02T01:22:47.026Z,7.02
2023-04-02T01:23:47.051Z,7.02
2023-04-02T01:24:47.066Z,7.05
2023-04-02T01:25:47.083Z,7.05
2023-04-02T01:26:47.141Z,7.05
2023-04-02T01:27:47.120Z,7.05
2023-04-02T01:28:47.136Z,7.05
2023-04-02T01:29:47.177Z,7.06
2023-04-02T01:30:47.172Z,7.06
2023-04-02T01:31:47.377Z,7.10
2023-04-02T01:32:47.260Z,7.07
2023-04-02T01:33:47.231Z,7.06
2023-04-02T01:34:47.237Z,7.06
2023-04-02T01:35:47.295Z,7.06
2023-04-02T01:36:47.286Z,7.06
2023-04-02T01:37:47.292Z,7.07
2023-04-02T01:38:47.302Z,7.06
2023-04-02T01:39:47.323Z,7.05
2023-04-02T01:40:47.342Z,7.05
2023-04-02T01:41:47.385Z,7.03
2023-04-02T01:42:47.390Z,7.03
2023-04-02T01:43:47.398Z,7.03
2023-04-02T01:44:47.415Z,7.03
2023-04-02T01:45:47.441Z,7.03
2023-04-02T01:46:47.506Z,7.02
2023-04-02T01:47:47.511Z,6.99
2023-04-02T01:48:47.487Z,6.97
2023-04-02T01:49:47.516Z,6.97
2023-04-02T01:50:47.522Z,6.95
2023-04-02T01:51:47.560Z,6.96
2023-04-02T01:52:47.562Z,6.95
2023-04-02T01:53:47.581Z,6.96
2023-04-02T01:54:47.601Z,6.97
2023-04-02T01:55:47.614Z,6.96
2023-04-02T01:56:47.658Z,6.99
2023-04-02T01:57:47.651Z,6.99
2023-04-02T01:58:47.663Z,6.97
2023-04-02T01:59:47.689Z,6.96
2023-04-02T02:00:47.740Z,6.96
2023-04-02T02:01:47.771Z,6.96
2023-04-02T02:02:47.731Z,6.93
2023-04-02T02:03:47.753Z,6.95
2023-04-02T02:04:47.768Z,6.93
2023-04-02T02:05:47.791Z,6.92
2023-04-02T02:06:47.829Z,6.89
2023-04-02T02:07:47.825Z,6.93
2023-04-02T02:08:47.838Z,6.92
2023-04-02T02:09:47.859Z,6.93
2023-04-02T02:10:47.868Z,6.92
2023-04-02T02:11:47.909Z,6.95
2023-04-02T02:12:47.995Z,6.95
2023-04-02T02:13:47.932Z,6.95
2023-04-02T02:14:47.944Z,6.93
2023-04-02T02:15:47.970Z,6.93
2023-04-02T02:16:48.061Z,6.93
2023-04-02T02:17:48.062Z,6.92
2023-04-02T02:18:48.009Z,6.89
2023-04-02T02:19:48.036Z,6.89
2023-04-02T02:20:48.043Z,6.89
2023-04-02T02:21:48.089Z,6.87
2023-04-02T02:22:48.080Z,6.88
2023-04-02T02:23:48.097Z,6.87
2023-04-02T02:24:48.107Z,6.87
2023-04-02T02:25:48.138Z,6.87
2023-04-02T02:26:48.162Z,6.85
2023-04-02T02:27:48.172Z,6.87
2023-04-02T02:28:48.182Z,6.85
2023-04-02T02:29:48.221Z,6.84
2023-04-02T02:30:48.222Z,6.84
2023-04-02T02:31:48.275Z,6.84
2023-04-02T02:32:48.353Z,6.84
2023-04-02T02:33:48.271Z,6.82
2023-04-02T02:34:48.287Z,6.82
2023-04-02T02:35:48.381Z,6.82
2023-04-02T02:36:48.358Z,6.82
2023-04-02T02:37:48.336Z,6.84
2023-04-02T02:38:48.354Z,6.84
2023-04-02T02:39:48.380Z,6.84
2023-04-02T02:40:48.388Z,6.82
2023-04-02T02:41:48.414Z,6.82
2023-04-02T02:42:48.426Z,6.84
2023-04-02T02:43:48.444Z,6.84
2023-04-02T02:44:48.459Z,6.84
2023-04-02T02:45:48.538Z,6.85
2023-04-02T02:46:48.490Z,6.82
2023-04-02T02:47:48.569Z,6.82
2023-04-02T02:48:48.522Z,6.84
2023-04-02T02:49:48.544Z,6.84
2023-04-02T02:50:48.557Z,6.79
2023-04-02T02:51:48.579Z,6.81
2023-04-02T02:52:48.588Z,6.79
2023-04-02T02:53:48.610Z,6.79
2023-04-02T02:54:48.640Z,6.79
2023-04-02T02:55:48.646Z,6.79
2023-04-02T02:56:48.711Z,6.77
2023-04-02T02:57:48.685Z,6.75
2023-04-02T02:58:48.695Z,6.75
2023-04-02T02:59:48.717Z,6.74
2023-04-02T03:00:48.752Z,6.74
2023-04-02T03:01:48.794Z,6.74
2023-04-02T03:02:48.834Z,6.75
2023-04-02T03:03:48.953Z,6.75
2023-04-02T03:04:48.792Z,6.74
2023-04-02T03:05:48.821Z,6.74
2023-04-02T03:06:48.854Z,6.75
2023-04-02T03:07:48.862Z,6.75
2023-04-02T03:08:48.902Z,6.74
2023-04-02T03:09:48.902Z,6.72
2023-04-02T03:10:48.913Z,6.72
2023-04-02T03:11:48.951Z,6.72
2023-04-02T03:12:48.942Z,6.74
2023-04-02T03:13:48.961Z,6.75
2023-04-02T03:14:48.975Z,6.77
2023-04-02T03:15:49.053Z,6.77
2023-04-02T03:16:49.053Z,6.77
2023-04-02T03:17:49.062Z,6.77
2023-04-02T03:18:49.049Z,6.77
2023-04-02T03:19:49.063Z,6.75
2023-04-02T03:20:49.090Z,6.75
2023-04-02T03:21:49.131Z,6.74
2023-04-02T03:22:49.117Z,6.70
2023-04-02T03:23:49.136Z,6.69
2023-04-02T03:24:49.156Z,6.67
2023-04-02T03:25:49.176Z,6.69
2023-04-02T03:26:49.207Z,6.69
2023-04-02T03:27:49.219Z,6.67
2023-04-02T03:28:49.228Z,6.69
2023-04-02T03:29:49.251Z,6.69
2023-04-02T03:30:49.267Z,6.69
2023-04-02T03:31:49.303Z,6.67
2023-04-02T03:32:49.323Z,6.66
2023-04-02T03:33:49.318Z,6.66
2023-04-02T03:34:49.335Z,6.67
2023-04-02T03:35:49.369Z,6.66
2023-04-02T03:36:49.387Z,6.67
2023-04-02T03:37:49.391Z,6.66
2023-04-02T03:38:49.406Z,6.64
2023-04-02T03:39:49.434Z,6.64
2023-04-02T03:40:49.451Z,6.64
2023-04-02T03:41:49.481Z,6.64
2023-04-02T03:42:49.500Z,6.67
2023-04-02T03:43:49.500Z,6.66
2023-04-02T03:44:49.527Z,6.67
2023-04-02T03:45:49.537Z,6.66
2023-04-02T03:46:49.682Z,6.64
2023-04-02T03:47:49.577Z,6.63
2023-04-02T03:48:49.607Z,6.63
2023-04-02T03:49:49.608Z,6.64
2023-04-02T03:50:49.623Z,6.64
2023-04-02T03:51:49.673Z,6.64
2023-04-02T03:52:49.664Z,6.63
2023-04-02T03:53:49.669Z,6.63
2023-04-02T03:54:53.502Z,6.62
2023-04-02T03:55:49.708Z,6.60
2023-04-02T03:56:49.768Z,6.62
2023-04-02T03:57:49.747Z,6.60
2023-04-02T03:58:49.764Z,6.59
2023-04-02T03:59:49.786Z,6.57
2023-04-02T04:00:49.808Z,6.57
2023-04-02T04:01:49.858Z,6.57
2023-04-02T04:02:49.877Z,6.56
2023-04-02T04:03:49.893Z,6.54
2023-04-02T04:04:49.853Z,6.54
2023-04-02T04:05:49.882Z,6.51
2023-04-02T04:06:49.915Z,6.54
2023-04-02T04:07:49.908Z,6.52
2023-04-02T04:08:49.926Z,6.54
2023-04-02T04:09:49.947Z,6.51
2023-04-02T04:10:49.969Z,6.52
2023-04-02T04:11:49.997Z,6.54
2023-04-02T04:12:49.991Z,6.57
2023-04-02T04:13:50.010Z,6.56
2023-04-02T04:14:50.020Z,6.54
2023-04-02T04:15:50.040Z,6.51
2023-04-02T04:16:50.149Z,6.52
2023-04-02T04:17:50.141Z,6.51
2023-04-02T04:18:50.097Z,6.49
2023-04-02T04:19:50.113Z,6.51
2023-04-02T04:20:50.132Z,6.44
2023-04-02T04:21:50.156Z,6.42
2023-04-02T04:22:50.180Z,6.39
2023-04-02T04:23:50.193Z,6.35
2023-04-02T04:24:50.202Z,6.33
2023-04-02T04:25:50.223Z,6.31
2023-04-02T04:26:50.250Z,6.30
2023-04-02T04:27:50.256Z,6.30
2023-04-02T04:28:50.270Z,6.31
2023-04-02T04:29:50.311Z,6.28
2023-04-02T04:30:50.304Z,6.28
2023-04-02T04:31:50.400Z,6.26
2023-04-02T04:32:50.432Z,6.26
2023-04-02T04:33:50.365Z,6.26
2023-04-02T04:34:50.380Z,6.27
2023-04-02T04:35:50.436Z,6.27
2023-04-02T04:36:50.424Z,6.27
2023-04-02T04:37:50.436Z,6.27
2023-04-02T04:38:50.448Z,6.24
2023-04-02T04:39:50.471Z,6.26
2023-04-02T04:40:50.482Z,6.22
2023-04-02T04:41:50.514Z,6.20
2023-04-02T04:42:50.525Z,6.17
2023-04-02T04:43:50.565Z,6.19
2023-04-02T04:44:50.553Z,6.19
2023-04-02T04:45:50.628Z,6.16
2023-04-02T04:46:50.608Z,6.16
2023-04-02T04:47:50.678Z,6.16
2023-04-02T04:48:50.629Z,6.16
2023-04-02T04:49:50.680Z,6.14
2023-04-02T04:50:50.668Z,6.14
2023-04-02T04:51:50.714Z,6.16
2023-04-02T04:52:50.696Z,6.16
2023-04-02T04:53:50.721Z,6.14
2023-04-02T04:54:50.742Z,6.14
2023-04-02T04:55:50.755Z,6.16
2023-04-02T04:56:50.808Z,6.16
2023-04-02T04:57:50.780Z,6.17
2023-04-02T04:58:50.794Z,6.19
2023-04-02T04:59:50.819Z,6.19
2023-04-02T05:00:50.836Z,6.20
2023-04-02T05:01:50.882Z,6.19
2023-04-02T05:02:50.899Z,6.16
2023-04-02T05:03:50.889Z,6.16
2023-04-02T05:04:50.928Z,6.16
2023-04-02T05:05:50.926Z,6.14
2023-04-02T05:06:50.962Z,6.14
2023-04-02T05:07:50.963Z,6.14
2023-04-02T05:08:50.985Z,6.14
2023-04-02T05:09:50.976Z,6.12
2023-04-02T05:10:51.009Z,6.12
2023-04-02T05:11:51.021Z,6.08
2023-04-02T05:12:51.032Z,6.05
2023-04-02T05:13:51.038Z,6.05
2023-04-02T05:14:51.053Z,6.02
2023-04-02T05:15:51.109Z,6.01
2023-04-02T05:16:51.120Z,6.01
2023-04-02T05:17:51.159Z,6.01
2023-04-02T05:18:51.125Z,6.01
2023-04-02T05:19:51.137Z,5.99
2023-04-02T05:20:51.155Z,5.98
2023-04-02T05:21:51.204Z,5.97
2023-04-02T05:22:51.190Z,5.94
2023-04-02T05:23:51.199Z,5.90
2023-04-02T05:24:51.229Z,5.86
2023-04-02T05:25:51.242Z,5.83
2023-04-02T05:26:51.295Z,5.82
2023-04-02T05:27:51.285Z,5.82
2023-04-02T05:28:51.309Z,5.83
2023-04-02T05:29:51.320Z,5.83
2023-04-02T05:30:51.340Z,5.86
2023-04-02T05:31:51.368Z,5.87
2023-04-02T05:32:51.401Z,5.89
2023-04-02T05:33:51.389Z,5.89
2023-04-02T05:34:51.401Z,5.87
2023-04-02T05:35:51.440Z,5.89
2023-04-02T05:36:51.459Z,5.87
2023-04-02T05:37:51.441Z,5.87
2023-04-02T05:38:51.464Z,5.87
2023-04-02T05:39:51.483Z,5.90
2023-04-02T05:40:51.497Z,5.93
2023-04-02T05:41:51.528Z,5.94
2023-04-02T05:42:51.531Z,5.97
2023-04-02T05:43:51.540Z,5.98
2023-04-02T05:44:51.562Z,5.98
2023-04-02T05:45:51.580Z,6.01
2023-04-02T05:46:51.642Z,6.05
2023-04-02T05:47:51.664Z,6.05
2023-04-02T05:48:51.642Z,6.09
2023-04-02T05:49:51.655Z,6.12
2023-04-02T05:50:51.670Z,6.19
2023-04-02T05:51:51.689Z,6.20
2023-04-02T05:52:51.720Z,6.20
2023-04-02T05:53:51.721Z,6.22
2023-04-02T05:54:51.744Z,6.27
2023-04-02T05:55:51.766Z,6.31
2023-04-02T05:56:51.785Z,6.36
2023-04-02T05:58:13.341Z,6.39
2023-04-02T05:58:51.923Z,6.36
2023-04-02T05:59:51.827Z,6.38
2023-04-02T06:00:51.850Z,6.41
2023-04-02T06:01:51.909Z,6.46
2023-04-02T06:02:51.960Z,6.52
2023-04-02T06:03:51.945Z,6.54
2023-04-02T06:04:51.922Z,6.60
2023-04-02T06:05:51.930Z,6.63
2023-04-02T06:06:51.970Z,6.64
2023-04-02T06:07:51.968Z,6.67
2023-04-02T06:08:51.992Z,6.72
2023-04-02T06:09:52.011Z,6.75
2023-04-02T06:10:52.019Z,6.75
2023-04-02T06:11:52.058Z,6.79
2023-04-02T06:12:52.048Z,6.82
2023-04-02T06:13:52.063Z,6.85
2023-04-02T06:14:52.086Z,6.87
2023-04-02T06:15:52.098Z,6.88
2023-04-02T06:16:52.194Z,6.92
2023-04-02T06:17:52.171Z,6.97
2023-04-02T06:18:52.158Z,7.00
2023-04-02T06:19:52.170Z,7.00
2023-04-02T06:20:52.191Z,7.05
2023-04-02T06:21:52.223Z,7.07
2023-04-02T06:22:52.216Z,7.10
2023-04-02T06:23:52.232Z,7.10
2023-04-02T06:24:52.255Z,7.11
2023-04-02T06:25:53.353Z,7.14
2023-04-02T06:26:52.306Z,7.20
2023-04-02T06:27:52.307Z,7.24
2023-04-02T06:28:52.332Z,7.25
2023-04-02T06:29:52.355Z,7.33
2023-04-02T06:30:52.391Z,7.38
2023-04-02T06:31:52.392Z,7.38
2023-04-02T06:32:52.469Z,7.32
2023-04-02T06:33:52.410Z,7.33
2023-04-02T06:34:52.433Z,7.39
2023-04-02T06:35:52.520Z,7.42
2023-04-02T06:36:52.495Z,7.42
2023-04-02T06:37:52.490Z,7.45
2023-04-02T06:38:52.514Z,7.47
2023-04-02T06:39:52.527Z,7.42
2023-04-02T06:40:52.548Z,7.42
2023-04-02T06:41:52.580Z,7.42
2023-04-02T06:42:52.580Z,7.40
2023-04-02T06:43:52.595Z,7.43
2023-04-02T06:44:52.623Z,7.47
2023-04-02T06:45:52.790Z,7.53
2023-04-02T06:46:52.818Z,7.58
2023-04-02T06:47:52.758Z,7.63
2023-04-02T06:48:52.691Z,7.70
2023-04-02T06:49:52.714Z,7.75
2023-04-02T06:50:52.724Z,7.80
2023-04-02T06:51:52.758Z,7.82
2023-04-02T06:52:52.767Z,7.87
2023-04-02T06:53:52.777Z,7.91
2023-04-02T06:54:52.836Z,7.94
2023-04-02T06:55:52.822Z,7.94
2023-04-02T06:56:52.901Z,7.95
2023-04-02T06:57:52.846Z,7.97
2023-04-02T06:58:52.866Z,7.97
2023-04-02T06:59:52.893Z,7.98
2023-04-02T07:00:52.903Z,8.01
2023-04-02T07:01:53.028Z,8.08
2023-04-02T07:02:52.976Z,8.16
2023-04-02T07:03:52.945Z,8.19
2023-04-02T07:04:53.042Z,8.24
2023-04-02T07:05:52.978Z,8.30
2023-04-02T07:06:53.016Z,8.30
2023-04-02T07:07:53.012Z,8.28
2023-04-02T07:08:53.044Z,8.28
2023-04-02T07:09:53.046Z,8.33
2023-04-02T07:10:53.075Z,8.42
2023-04-02T07:11:53.110Z,8.41
2023-04-02T07:12:53.111Z,8.46
2023-04-02T07:13:53.126Z,8.48
2023-04-02T07:14:53.153Z,8.51
2023-04-02T07:15:53.176Z,8.46
2023-04-02T07:16:53.196Z,8.48
2023-04-02T07:17:53.244Z,8.48
2023-04-02T07:18:53.209Z,8.45
2023-04-02T07:19:53.215Z,8.46
2023-04-02T07:20:53.252Z,8.51
2023-04-02T07:21:53.277Z,8.52
2023-04-02T07:22:53.281Z,8.61
2023-04-02T07:23:53.279Z,8.67
2023-04-02T07:24:53.308Z,8.69
2023-04-02T07:25:53.326Z,8.74
2023-04-02T07:26:53.361Z,8.82
2023-04-02T07:27:53.362Z,8.82
2023-04-02T07:28:53.414Z,8.88
2023-04-02T07:29:53.425Z,8.95
2023-04-02T07:30:53.417Z,8.95
2023-04-02T07:31:53.465Z,8.95
2023-04-02T07:32:53.550Z,9.02
2023-04-02T07:33:53.457Z,9.02
2023-04-02T07:34:53.484Z,8.99
2023-04-02T07:35:53.534Z,9.00
2023-04-02T07:36:53.542Z,9.02
2023-04-02T07:37:53.536Z,9.03
2023-04-02T07:38:53.568Z,8.99
2023-04-02T07:39:53.573Z,9.00
2023-04-02T07:40:53.599Z,8.99
2023-04-02T07:41:53.624Z,8.89
2023-04-02T07:42:53.622Z,8.87
2023-04-02T07:43:53.634Z,8.89
2023-04-02T07:44:53.669Z,8.92
2023-04-02T07:45:53.666Z,8.85
2023-04-02T07:46:53.723Z,8.78
2023-04-02T07:47:53.734Z,8.78
2023-04-02T07:48:53.734Z,8.79
2023-04-02T07:49:53.738Z,8.87
2023-04-02T07:50:53.785Z,8.89
2023-04-02T07:51:53.794Z,8.94
2023-04-02T07:52:53.798Z,8.97
2023-04-02T07:53:53.818Z,8.95
2023-04-02T07:54:53.841Z,8.99
2023-04-02T07:55:53.851Z,8.97
2023-04-02T07:56:53.964Z,9.02
2023-04-02T07:57:53.889Z,9.00
2023-04-02T07:58:53.913Z,9.02
2023-04-02T07:59:53.922Z,9.00
2023-04-02T08:00:53.948Z,8.97
2023-04-02T08:01:53.983Z,9.11
2023-04-02T08:02:54.089Z,9.25
2023-04-02T08:03:54.715Z,9.36
2023-04-02T08:04:54.019Z,9.48
2023-04-02T08:05:54.034Z,9.64
2023-04-02T08:06:54.079Z,9.76
2023-04-02T08:07:54.074Z,9.83
2023-04-02T08:08:54.097Z,9.94
2023-04-02T08:09:54.134Z,9.98
2023-04-02T08:10:54.126Z,9.97
2023-04-02T08:11:54.155Z,10.02
2023-04-02T08:12:54.155Z,10.04
2023-04-02T08:13:54.168Z,10.04
2023-04-02T08:14:54.188Z,9.98
2023-04-02T08:15:54.196Z,9.94
2023-04-02T08:16:54.364Z,9.97
2023-04-02T08:17:54.301Z,10.01
2023-04-02T08:18:54.272Z,9.98
2023-04-02T08:19:55.368Z,9.95
2023-04-02T08:20:54.306Z,9.98
2023-04-02T08:21:54.322Z,10.05
2023-04-02T08:22:54.320Z,10.12
2023-04-02T08:23:54.329Z,10.09
2023-04-02T08:24:54.355Z,10.12
2023-04-02T08:25:54.359Z,10.09
2023-04-02T08:26:54.405Z,10.04
2023-04-02T08:27:54.383Z,10.07
2023-04-02T08:28:54.394Z,10.15
2023-04-02T08:29:54.417Z,10.23
2023-04-02T08:30:54.526Z,10.37
2023-04-02T08:31:54.457Z,10.42
2023-04-02T08:32:54.522Z,10.49
2023-04-02T08:33:54.469Z,10.59
2023-04-02T08:34:54.487Z,10.67
2023-04-02T08:35:54.543Z,10.75
2023-04-02T08:36:54.537Z,10.79
2023-04-02T08:37:54.534Z,10.76
2023-04-02T08:38:54.549Z,10.92
2023-04-02T08:39:54.568Z,11.00
2023-04-02T08:40:54.574Z,11.07
2023-04-02T08:41:54.617Z,11.17
2023-04-02T08:42:54.616Z,11.19
2023-04-02T08:43:54.627Z,11.15
2023-04-02T08:44:54.648Z,11.07
2023-04-02T08:45:54.684Z,11.07
2023-04-02T08:46:54.685Z,11.08
2023-04-02T08:47:54.733Z,11.08
2023-04-02T08:48:54.705Z,11.11
2023-04-02T08:49:54.710Z,11.08
2023-04-02T08:50:54.735Z,11.05
2023-04-02T08:51:54.755Z,10.97
2023-04-02T08:52:54.763Z,10.93
2023-04-02T08:53:54.794Z,10.94
2023-04-02T08:54:54.793Z,11.04
2023-04-02T08:55:54.804Z,11.15
2023-04-02T08:56:54.854Z,11.12
2023-04-02T08:57:54.854Z,11.04
2023-04-02T08:58:54.866Z,11.00
2023-04-02T08:59:54.869Z,11.08
2023-04-02T09:00:54.913Z,11.14
2023-04-02T09:01:54.971Z,11.10
2023-04-02T09:02:54.966Z,10.89
2023-04-02T09:03:54.945Z,10.81
2023-04-02T09:04:55.019Z,10.71
2023-04-02T09:05:54.976Z,10.46
2023-04-02T09:06:55.014Z,10.41
2023-04-02T09:07:55.001Z,10.41
2023-04-02T09:08:55.018Z,10.44
2023-04-02T09:09:55.031Z,10.48
2023-04-02T09:10:55.052Z,10.49
2023-04-02T09:11:55.080Z,10.51
2023-04-02T09:12:55.083Z,10.51
2023-04-02T09:13:55.094Z,10.53
2023-04-02T09:14:55.110Z,10.56
2023-04-02T09:15:55.148Z,10.57
2023-04-02T09:16:55.164Z,10.57
2023-04-02T09:17:56.643Z,10.54
2023-04-02T09:18:55.162Z,10.49
2023-04-02T09:19:55.174Z,10.44
2023-04-02T09:20:55.195Z,10.35
2023-04-02T09:21:55.211Z,10.34
2023-04-02T09:22:55.236Z,10.30
2023-04-02T09:23:55.241Z,10.22
2023-04-02T09:24:55.253Z,10.17
2023-04-02T09:26:04.196Z,10.15
2023-04-02T09:26:55.303Z,10.15
2023-04-02T09:27:55.306Z,10.10
2023-04-02T09:28:55.315Z,10.05
2023-04-02T09:29:55.331Z,10.02
2023-04-02T09:30:55.340Z,10.01
2023-04-02T09:31:55.441Z,9.99
2023-04-02T09:32:55.376Z,10.02
2023-04-02T09:33:55.392Z,9.97
2023-04-02T09:34:55.404Z,9.92
2023-04-02T09:35:55.465Z,9.89
2023-04-02T09:36:55.472Z,9.86
2023-04-02T09:37:55.468Z,9.86
2023-04-02T09:38:55.478Z,9.86
2023-04-02T09:39:55.500Z,9.87
2023-04-02T09:40:55.506Z,9.97
2023-04-02T09:42:05.055Z,10.07
2023-04-02T09:42:55.540Z,10.15
2023-04-02T09:43:55.551Z,10.17
2023-04-02T09:44:55.565Z,10.23
2023-04-02T09:45:55.577Z,10.37
2023-04-02T09:46:55.680Z,10.42
2023-04-02T09:47:55.638Z,10.42
2023-04-02T09:48:55.617Z,10.44
2023-04-02T09:49:55.637Z,10.48
2023-04-02T09:50:55.645Z,10.46
2023-04-02T09:51:55.685Z,10.44
2023-04-02T09:52:55.682Z,10.42
2023-04-02T09:53:55.697Z,10.44
2023-04-02T09:54:55.706Z,10.44
2023-04-02T09:55:55.724Z,10.49
2023-04-02T09:56:55.754Z,10.56
2023-04-02T09:57:55.761Z,10.67
2023-04-02T09:58:55.765Z,10.81
2023-04-02T09:59:55.787Z,11.02
2023-04-02T10:00:55.803Z,11.26
2023-04-02T10:01:55.953Z,11.57
2023-04-02T10:02:55.967Z,11.65
2023-04-02T10:03:55.883Z,11.80
2023-04-02T10:04:55.863Z,11.91
2023-04-02T10:05:55.876Z,12.03
2023-04-02T10:06:55.944Z,11.95
2023-04-02T10:07:55.903Z,12.10
2023-04-02T10:08:55.919Z,12.21
2023-04-02T10:09:55.933Z,12.31
2023-04-02T10:10:55.962Z,12.35
2023-04-02T10:11:55.999Z,12.31
2023-04-02T10:12:55.979Z,12.31
2023-04-02T10:13:56.008Z,12.31
2023-04-02T10:14:56.015Z,12.35
2023-04-02T10:15:56.034Z,12.32
2023-04-02T10:16:56.149Z,12.29
2023-04-02T10:17:56.084Z,12.21
2023-04-02T10:18:56.086Z,12.09
2023-04-02T10:19:56.093Z,11.90
2023-04-02T10:20:56.101Z,11.83
2023-04-02T10:21:56.136Z,11.75
2023-04-02T10:22:56.131Z,11.75
2023-04-02T10:23:56.155Z,11.87
2023-04-02T10:24:56.165Z,11.97
2023-04-02T10:25:56.188Z,11.99
2023-04-02T10:26:56.212Z,12.02
2023-04-02T10:27:56.211Z,12.03
2023-04-02T10:28:56.226Z,12.06
2023-04-02T10:29:56.245Z,12.13
2023-04-02T10:30:56.272Z,12.22
2023-04-02T10:31:56.282Z,12.37
2023-04-02T10:32:56.342Z,12.32
2023-04-02T10:33:56.314Z,12.32
2023-04-02T10:34:56.320Z,12.36
2023-04-02T10:35:56.389Z,12.37
2023-04-02T10:36:56.368Z,12.27
2023-04-02T10:37:56.370Z,12.29
2023-04-02T10:38:56.400Z,12.27
2023-04-02T10:39:56.406Z,12.25
2023-04-02T10:40:57.065Z,12.35
2023-04-02T10:41:56.466Z,12.36
2023-04-02T10:42:56.439Z,12.47
2023-04-02T10:43:59.301Z,12.53
2023-04-02T10:44:56.485Z,12.49
2023-04-02T10:45:56.519Z,12.58
2023-04-02T10:46:56.524Z,12.55
2023-04-02T10:47:56.569Z,12.49
2023-04-02T10:48:56.529Z,12.46
2023-04-02T10:49:56.547Z,12.35
2023-04-02T10:50:56.561Z,12.29
2023-04-02T10:51:56.604Z,12.40
2023-04-02T10:52:56.809Z,12.29
2023-04-02T10:53:56.604Z,12.09
2023-04-02T10:54:56.613Z,12.07
2023-04-02T10:55:56.633Z,12.04
2023-04-02T10:56:56.679Z,12.09
2023-04-02T10:57:56.661Z,12.13
2023-04-02T10:58:57.576Z,12.20
2023-04-02T10:59:56.694Z,12.15
2023-04-02T11:00:56.704Z,12.06
2023-04-02T11:01:56.815Z,12.09
2023-04-02T11:02:56.883Z,12.22
2023-04-02T11:03:58.199Z,12.32
2023-04-02T11:04:57.507Z,12.25
2023-04-02T11:05:57.212Z,12.13
2023-04-02T11:07:07.260Z,12.04
2023-04-02T11:07:56.822Z,12.00
2023-04-02T11:08:56.832Z,12.06
2023-04-02T11:09:56.853Z,12.24
2023-04-02T11:10:56.865Z,12.35
2023-04-02T11:11:56.910Z,12.53
2023-04-02T11:12:56.889Z,12.64
2023-04-02T11:13:56.908Z,12.80
2023-04-02T11:14:56.915Z,12.85
2023-04-02T11:15:56.954Z,12.85
2023-04-02T11:16:57.015Z,12.80
2023-04-02T11:17:56.983Z,12.85
2023-04-02T11:18:56.969Z,12.91
2023-04-02T11:19:56.995Z,13.03
2023-04-02T11:20:57.000Z,13.04
2023-04-02T11:21:59.950Z,13.05
2023-04-02T11:22:57.029Z,13.08
2023-04-02T11:23:57.062Z,13.04
2023-04-02T11:24:57.055Z,12.90
2023-04-02T11:25:57.072Z,12.73
2023-04-02T11:26:57.108Z,12.73
2023-04-02T11:27:57.100Z,12.76
2023-04-02T11:28:57.112Z,12.65
2023-04-02T11:29:57.132Z,12.67
2023-04-02T11:30:57.148Z,12.72
2023-04-02T11:31:57.184Z,12.76
2023-04-02T11:32:57.201Z,12.79
2023-04-02T11:33:57.194Z,12.85
2023-04-02T11:35:06.555Z,12.90
2023-04-02T11:35:57.247Z,12.91
2023-04-02T11:36:57.260Z,12.95
2023-04-02T11:37:57.258Z,12.98
2023-04-02T11:39:04.466Z,13.04
2023-04-02T11:39:57.292Z,13.01
2023-04-02T11:40:57.324Z,13.01
2023-04-02T11:41:57.353Z,13.12
2023-04-02T11:42:57.326Z,13.12
2023-04-02T11:43:57.343Z,13.15
2023-04-02T11:44:57.357Z,13.27
2023-04-02T11:45:57.727Z,13.39
2023-04-02T11:46:57.524Z,13.50
2023-04-02T11:47:57.462Z,13.54
2023-04-02T11:48:57.423Z,13.59
2023-04-02T11:49:57.453Z,13.67
2023-04-02T11:50:57.471Z,13.79
2023-04-02T11:52:09.032Z,13.86
2023-04-02T11:52:57.497Z,13.87
2023-04-02T11:53:57.512Z,13.77
2023-04-02T11:54:57.534Z,13.59
2023-04-02T11:55:57.587Z,13.46
2023-04-02T11:56:57.586Z,13.52
2023-04-02T11:57:57.572Z,13.49
2023-04-02T11:58:57.579Z,13.42
2023-04-02T11:59:57.595Z,13.35
2023-04-02T12:00:57.636Z,13.41
2023-04-02T12:01:57.689Z,13.49
2023-04-02T12:02:57.658Z,13.39
2023-04-02T12:03:57.677Z,13.41
2023-04-02T12:04:57.700Z,13.42
2023-04-02T12:05:57.691Z,13.39
2023-04-02T12:06:57.733Z,13.33
2023-04-02T12:07:57.722Z,13.31
2023-04-02T12:08:58.392Z,13.30
2023-04-02T12:09:57.770Z,13.25
2023-04-02T12:10:57.771Z,13.25
2023-04-02T12:11:57.819Z,13.19
2023-04-02T12:12:57.791Z,13.16
2023-04-02T12:13:57.819Z,13.09
2023-04-02T12:14:57.827Z,13.09
2023-04-02T12:15:57.842Z,13.09
2023-04-02T12:16:57.936Z,13.16
2023-04-02T12:17:57.914Z,13.19
2023-04-02T12:18:57.884Z,13.08
2023-04-02T12:19:57.913Z,13.08
2023-04-02T12:20:57.914Z,13.08
2023-04-02T12:21:57.982Z,13.18
2023-04-02T12:22:57.952Z,13.22
2023-04-02T12:23:57.960Z,13.42
2023-04-02T12:24:57.980Z,13.63
2023-04-02T12:25:57.997Z,13.72
2023-04-02T12:26:58.042Z,13.83
2023-04-02T12:27:58.024Z,13.89
2023-04-02T12:28:58.028Z,14.00
2023-04-02T12:29:58.056Z,14.14
2023-04-02T12:30:58.084Z,14.35
2023-04-02T12:31:58.117Z,14.08
2023-04-02T12:32:58.147Z,14.07
2023-04-02T12:33:58.118Z,13.99
2023-04-02T12:34:58.128Z,13.97
2023-04-02T12:35:58.192Z,13.90
2023-04-02T12:36:58.167Z,13.95
2023-04-02T12:37:58.188Z,13.86
2023-04-02T12:38:58.187Z,13.71
2023-04-02T12:39:58.191Z,13.49
2023-04-02T12:40:58.227Z,13.50
2023-04-02T12:41:58.280Z,13.68
2023-04-02T12:42:58.244Z,13.75
2023-04-02T12:43:58.266Z,13.90
2023-04-02T12:44:58.271Z,13.93
2023-04-02T12:45:58.366Z,13.85
2023-04-02T12:46:58.338Z,13.63
2023-04-02T12:47:58.400Z,13.56
2023-04-02T12:48:58.332Z,13.47
2023-04-02T12:49:58.358Z,13.35
2023-04-02T12:50:58.385Z,13.16
2023-04-02T12:51:58.418Z,13.09
2023-04-02T12:52:58.422Z,12.98
2023-04-02T12:53:58.419Z,12.80
2023-04-02T12:54:58.446Z,12.68
2023-04-02T12:55:58.453Z,12.80
2023-04-02T12:56:58.550Z,12.83
2023-04-02T12:57:58.496Z,12.90
2023-04-02T12:58:58.499Z,13.01
2023-04-02T12:59:58.507Z,13.11
2023-04-02T13:00:58.518Z,13.18
2023-04-02T13:01:58.580Z,13.19
2023-04-02T13:02:58.632Z,12.94
2023-04-02T13:03:58.594Z,12.58
2023-04-02T13:04:58.575Z,12.54
2023-04-02T13:05:58.619Z,12.50
2023-04-02T13:06:58.629Z,12.46
2023-04-02T13:07:58.640Z,12.31
2023-04-02T13:08:58.635Z,11.87
2023-04-02T13:09:58.679Z,11.54